sensor_id;sensor_type;location;lat;lon;timestamp;P1;durP1;ratioP1;P2;durP2;ratioP2
68050;SDS011;54839;51.364;7.246;2022-11-20T00:02:15;27.73;;;19.83;;
68050;SDS011;54839;51.364;7.246;2022-11-20T00:04:41;26.10;;;20.10;;
68050;SDS011;54839;51.364;7.246;2022-11-20T00:07:07;29.60;;;21.40;;
68050;SDS011;54839;51.364;7.246;2022-11-20T00:09:32;29.53;;;21.33;;
68050;SDS011;54839;51.364;7.246;2022-11-20T00:11:58;28.17;;;20.23;;
68050;SDS011;54839;51.364;7.246;2022-11-20T00:14:23;29.93;;;23.27;;
68050;SDS011;54839;51.364;7.246;2022-11-20T00:16:49;28.27;;;21.40;;
68050;SDS011;54839;51.364;7.246;2022-11-20T00:19:15;32.23;;;21.90;;
68050;SDS011;54839;51.364;7.246;2022-11-20T00:21:40;30.87;;;20.77;;
68050;SDS011;54839;51.364;7.246;2022-11-20T00:24:08;28.17;;;19.97;;
68050;SDS011;54839;51.364;7.246;2022-11-20T00:26:34;22.80;;;16.43;;
68050;SDS011;54839;51.364;7.246;2022-11-20T00:29:00;29.27;;;20.40;;
68050;SDS011;54839;51.364;7.246;2022-11-20T00:31:26;31.70;;;21.80;;
68050;SDS011;54839;51.364;7.246;2022-11-20T00:33:53;25.77;;;19.50;;
68050;SDS011;54839;51.364;7.246;2022-11-20T00:36:20;23.70;;;17.80;;
68050;SDS011;54839;51.364;7.246;2022-11-20T00:38:50;29.33;;;20.10;;
68050;SDS011;54839;51.364;7.246;2022-11-20T00:41:21;28.57;;;20.90;;
68050;SDS011;54839;51.364;7.246;2022-11-20T00:43:47;26.10;;;20.47;;
68050;SDS011;54839;51.364;7.246;2022-11-20T00:46:14;27.57;;;19.20;;
68050;SDS011;54839;51.364;7.246;2022-11-20T00:48:42;28.80;;;19.70;;
68050;SDS011;54839;51.364;7.246;2022-11-20T00:51:08;22.83;;;17.27;;
68050;SDS011;54839;51.364;7.246;2022-11-20T00:53:35;20.00;;;15.63;;
68050;SDS011;54839;51.364;7.246;2022-11-20T00:56:02;22.20;;;13.47;;
68050;SDS011;54839;51.364;7.246;2022-11-20T00:58:39;21.07;;;15.50;;
68050;SDS011;54839;51.364;7.246;2022-11-20T01:01:07;20.80;;;15.80;;
68050;SDS011;54839;51.364;7.246;2022-11-20T01:03:35;25.37;;;18.50;;
68050;SDS011;54839;51.364;7.246;2022-11-20T01:06:03;21.37;;;15.97;;
68050;SDS011;54839;51.364;7.246;2022-11-20T01:08:34;21.57;;;17.30;;
68050;SDS011;54839;51.364;7.246;2022-11-20T01:11:14;19.20;;;13.73;;
68050;SDS011;54839;51.364;7.246;2022-11-20T01:13:41;22.70;;;16.93;;
68050;SDS011;54839;51.364;7.246;2022-11-20T01:16:09;20.43;;;15.43;;
68050;SDS011;54839;51.364;7.246;2022-11-20T01:18:37;20.90;;;13.57;;
68050;SDS011;54839;51.364;7.246;2022-11-20T01:21:17;19.23;;;14.70;;
68050;SDS011;54839;51.364;7.246;2022-11-20T01:23:45;19.97;;;13.97;;
68050;SDS011;54839;51.364;7.246;2022-11-20T01:26:12;20.03;;;13.90;;
68050;SDS011;54839;51.364;7.246;2022-11-20T01:28:40;18.60;;;13.70;;
68050;SDS011;54839;51.364;7.246;2022-11-20T01:31:13;18.33;;;14.50;;
68050;SDS011;54839;51.364;7.246;2022-11-20T01:33:45;19.60;;;15.17;;
68050;SDS011;54839;51.364;7.246;2022-11-20T01:36:12;19.10;;;13.87;;
68050;SDS011;54839;51.364;7.246;2022-11-20T01:38:38;20.37;;;14.73;;
68050;SDS011;54839;51.364;7.246;2022-11-20T01:41:04;17.07;;;13.30;;
68050;SDS011;54839;51.364;7.246;2022-11-20T01:43:31;17.27;;;13.53;;
68050;SDS011;54839;51.364;7.246;2022-11-20T01:46:02;17.27;;;13.13;;
68050;SDS011;54839;51.364;7.246;2022-11-20T01:51:38;20.90;;;15.43;;
68050;SDS011;54839;51.364;7.246;2022-11-20T01:54:12;20.37;;;15.63;;
68050;SDS011;54839;51.364;7.246;2022-11-20T01:56:42;20.00;;;15.93;;
68050;SDS011;54839;51.364;7.246;2022-11-20T01:59:12;19.60;;;16.43;;
68050;SDS011;54839;51.364;7.246;2022-11-20T02:01:40;21.73;;;15.47;;
68050;SDS011;54839;51.364;7.246;2022-11-20T02:04:06;19.93;;;14.83;;
68050;SDS011;54839;51.364;7.246;2022-11-20T02:06:38;18.13;;;14.60;;
68050;SDS011;54839;51.364;7.246;2022-11-20T02:09:29;31.57;;;17.90;;
68050;SDS011;54839;51.364;7.246;2022-11-20T02:11:56;20.80;;;15.03;;
68050;SDS011;54839;51.364;7.246;2022-11-20T02:14:23;19.10;;;14.10;;
68050;SDS011;54839;51.364;7.246;2022-11-20T02:16:49;17.20;;;12.90;;
68050;SDS011;54839;51.364;7.246;2022-11-20T02:19:28;19.97;;;13.90;;
68050;SDS011;54839;51.364;7.246;2022-11-20T02:22:00;18.03;;;13.50;;
68050;SDS011;54839;51.364;7.246;2022-11-20T02:24:37;20.43;;;14.33;;
68050;SDS011;54839;51.364;7.246;2022-11-20T02:27:12;24.83;;;16.33;;
68050;SDS011;54839;51.364;7.246;2022-11-20T02:29:46;19.17;;;14.47;;
68050;SDS011;54839;51.364;7.246;2022-11-20T02:32:26;17.33;;;12.50;;
68050;SDS011;54839;51.364;7.246;2022-11-20T02:34:54;18.50;;;13.30;;
68050;SDS011;54839;51.364;7.246;2022-11-20T02:37:20;21.03;;;13.57;;
68050;SDS011;54839;51.364;7.246;2022-11-20T02:39:47;18.53;;;13.57;;
68050;SDS011;54839;51.364;7.246;2022-11-20T02:42:14;16.53;;;12.70;;
68050;SDS011;54839;51.364;7.246;2022-11-20T02:44:40;18.90;;;12.67;;
68050;SDS011;54839;51.364;7.246;2022-11-20T02:47:05;18.17;;;13.93;;
68050;SDS011;54839;51.364;7.246;2022-11-20T02:49:31;17.67;;;12.87;;
68050;SDS011;54839;51.364;7.246;2022-11-20T02:51:57;20.43;;;14.67;;
68050;SDS011;54839;51.364;7.246;2022-11-20T02:54:22;17.27;;;13.50;;
68050;SDS011;54839;51.364;7.246;2022-11-20T02:56:48;20.73;;;13.77;;
68050;SDS011;54839;51.364;7.246;2022-11-20T02:59:14;15.20;;;11.60;;
68050;SDS011;54839;51.364;7.246;2022-11-20T03:01:40;16.90;;;13.43;;
68050;SDS011;54839;51.364;7.246;2022-11-20T03:04:05;18.77;;;13.07;;
68050;SDS011;54839;51.364;7.246;2022-11-20T03:06:31;16.73;;;12.70;;
68050;SDS011;54839;51.364;7.246;2022-11-20T03:08:57;20.47;;;14.33;;
68050;SDS011;54839;51.364;7.246;2022-11-20T03:11:23;19.73;;;13.67;;
68050;SDS011;54839;51.364;7.246;2022-11-20T03:13:49;17.30;;;11.43;;
68050;SDS011;54839;51.364;7.246;2022-11-20T03:16:16;18.20;;;12.57;;
68050;SDS011;54839;51.364;7.246;2022-11-20T03:18:43;15.73;;;11.80;;
68050;SDS011;54839;51.364;7.246;2022-11-20T03:21:09;17.87;;;11.33;;
68050;SDS011;54839;51.364;7.246;2022-11-20T03:23:36;15.17;;;11.77;;
68050;SDS011;54839;51.364;7.246;2022-11-20T03:28:42;18.30;;;12.50;;
68050;SDS011;54839;51.364;7.246;2022-11-20T03:31:13;19.07;;;12.37;;
68050;SDS011;54839;51.364;7.246;2022-11-20T03:33:40;22.20;;;13.23;;
68050;SDS011;54839;51.364;7.246;2022-11-20T03:36:07;16.40;;;12.77;;
68050;SDS011;54839;51.364;7.246;2022-11-20T03:38:36;17.30;;;13.53;;
68050;SDS011;54839;51.364;7.246;2022-11-20T03:41:03;21.77;;;15.50;;
68050;SDS011;54839;51.364;7.246;2022-11-20T03:43:31;18.37;;;13.97;;
68050;SDS011;54839;51.364;7.246;2022-11-20T03:45:57;17.57;;;11.97;;
68050;SDS011;54839;51.364;7.246;2022-11-20T03:48:23;17.80;;;12.90;;
68050;SDS011;54839;51.364;7.246;2022-11-20T03:50:49;18.03;;;13.87;;
68050;SDS011;54839;51.364;7.246;2022-11-20T03:53:15;22.73;;;14.43;;
68050;SDS011;54839;51.364;7.246;2022-11-20T03:55:41;16.70;;;12.03;;
68050;SDS011;54839;51.364;7.246;2022-11-20T03:58:07;19.90;;;13.83;;
68050;SDS011;54839;51.364;7.246;2022-11-20T04:00:33;18.30;;;12.97;;
68050;SDS011;54839;51.364;7.246;2022-11-20T04:03:00;21.20;;;14.77;;
68050;SDS011;54839;51.364;7.246;2022-11-20T04:05:26;20.07;;;14.40;;
68050;SDS011;54839;51.364;7.246;2022-11-20T04:07:52;19.30;;;13.03;;
68050;SDS011;54839;51.364;7.246;2022-11-20T04:10:18;24.87;;;17.50;;
68050;SDS011;54839;51.364;7.246;2022-11-20T04:12:44;20.00;;;14.43;;
68050;SDS011;54839;51.364;7.246;2022-11-20T04:15:10;19.70;;;16.20;;
68050;SDS011;54839;51.364;7.246;2022-11-20T04:17:35;19.53;;;13.97;;
68050;SDS011;54839;51.364;7.246;2022-11-20T04:20:01;21.30;;;16.07;;
68050;SDS011;54839;51.364;7.246;2022-11-20T04:22:27;21.17;;;14.60;;
68050;SDS011;54839;51.364;7.246;2022-11-20T04:24:53;21.53;;;15.13;;
68050;SDS011;54839;51.364;7.246;2022-11-20T04:27:19;18.70;;;15.13;;
68050;SDS011;54839;51.364;7.246;2022-11-20T04:29:44;19.43;;;14.03;;
68050;SDS011;54839;51.364;7.246;2022-11-20T04:32:10;20.53;;;13.77;;
68050;SDS011;54839;51.364;7.246;2022-11-20T04:34:36;18.57;;;13.67;;
68050;SDS011;54839;51.364;7.246;2022-11-20T04:37:01;26.30;;;15.70;;
68050;SDS011;54839;51.364;7.246;2022-11-20T04:39:27;22.00;;;14.23;;
68050;SDS011;54839;51.364;7.246;2022-11-20T04:41:52;19.67;;;14.53;;
68050;SDS011;54839;51.364;7.246;2022-11-20T04:44:38;21.40;;;14.30;;
68050;SDS011;54839;51.364;7.246;2022-11-20T04:47:04;19.83;;;12.93;;
68050;SDS011;54839;51.364;7.246;2022-11-20T04:49:29;22.87;;;15.10;;
68050;SDS011;54839;51.364;7.246;2022-11-20T04:51:56;19.87;;;13.97;;
68050;SDS011;54839;51.364;7.246;2022-11-20T04:54:22;19.17;;;13.83;;
68050;SDS011;54839;51.364;7.246;2022-11-20T04:56:48;18.40;;;14.80;;
68050;SDS011;54839;51.364;7.246;2022-11-20T04:59:13;20.53;;;13.27;;
68050;SDS011;54839;51.364;7.246;2022-11-20T05:01:39;20.20;;;13.60;;
68050;SDS011;54839;51.364;7.246;2022-11-20T05:04:04;19.27;;;14.10;;
68050;SDS011;54839;51.364;7.246;2022-11-20T05:06:30;22.40;;;13.30;;
68050;SDS011;54839;51.364;7.246;2022-11-20T05:08:57;17.20;;;12.47;;
68050;SDS011;54839;51.364;7.246;2022-11-20T05:11:23;14.43;;;10.77;;
68050;SDS011;54839;51.364;7.246;2022-11-20T05:13:50;13.83;;;10.10;;
68050;SDS011;54839;51.364;7.246;2022-11-20T05:16:20;11.50;;;8.27;;
68050;SDS011;54839;51.364;7.246;2022-11-20T05:18:47;12.20;;;8.30;;
68050;SDS011;54839;51.364;7.246;2022-11-20T05:21:13;12.30;;;9.63;;
68050;SDS011;54839;51.364;7.246;2022-11-20T05:23:39;15.07;;;12.03;;
68050;SDS011;54839;51.364;7.246;2022-11-20T05:26:07;13.23;;;9.90;;
68050;SDS011;54839;51.364;7.246;2022-11-20T05:28:36;13.07;;;10.13;;
68050;SDS011;54839;51.364;7.246;2022-11-20T05:31:12;14.83;;;11.90;;
68050;SDS011;54839;51.364;7.246;2022-11-20T05:33:44;14.53;;;9.97;;
68050;SDS011;54839;51.364;7.246;2022-11-20T05:36:10;14.20;;;10.57;;
68050;SDS011;54839;51.364;7.246;2022-11-20T05:38:37;11.03;;;9.00;;
68050;SDS011;54839;51.364;7.246;2022-11-20T05:41:13;12.73;;;8.47;;
68050;SDS011;54839;51.364;7.246;2022-11-20T05:43:41;13.40;;;8.77;;
68050;SDS011;54839;51.364;7.246;2022-11-20T05:46:08;12.23;;;9.20;;
68050;SDS011;54839;51.364;7.246;2022-11-20T05:48:35;11.20;;;8.63;;
68050;SDS011;54839;51.364;7.246;2022-11-20T05:51:02;10.40;;;7.77;;
68050;SDS011;54839;51.364;7.246;2022-11-20T05:53:29;10.37;;;8.17;;
68050;SDS011;54839;51.364;7.246;2022-11-20T05:56:05;10.80;;;8.50;;
68050;SDS011;54839;51.364;7.246;2022-11-20T05:58:33;10.63;;;8.57;;
68050;SDS011;54839;51.364;7.246;2022-11-20T06:03:36;11.57;;;9.07;;
68050;SDS011;54839;51.364;7.246;2022-11-20T06:06:03;13.20;;;11.30;;
68050;SDS011;54839;51.364;7.246;2022-11-20T06:08:29;12.30;;;9.40;;
68050;SDS011;54839;51.364;7.246;2022-11-20T06:10:55;12.80;;;9.53;;
68050;SDS011;54839;51.364;7.246;2022-11-20T06:13:21;13.80;;;9.67;;
68050;SDS011;54839;51.364;7.246;2022-11-20T06:15:50;12.57;;;9.53;;
68050;SDS011;54839;51.364;7.246;2022-11-20T06:18:17;13.30;;;10.93;;
68050;SDS011;54839;51.364;7.246;2022-11-20T06:20:43;13.77;;;10.73;;
68050;SDS011;54839;51.364;7.246;2022-11-20T06:23:09;14.80;;;10.97;;
68050;SDS011;54839;51.364;7.246;2022-11-20T06:25:38;16.90;;;11.37;;
68050;SDS011;54839;51.364;7.246;2022-11-20T06:28:05;15.27;;;11.90;;
68050;SDS011;54839;51.364;7.246;2022-11-20T06:30:30;14.77;;;11.67;;
68050;SDS011;54839;51.364;7.246;2022-11-20T06:32:56;15.80;;;11.30;;
68050;SDS011;54839;51.364;7.246;2022-11-20T06:35:21;14.90;;;11.73;;
68050;SDS011;54839;51.364;7.246;2022-11-20T06:37:47;16.37;;;13.03;;
68050;SDS011;54839;51.364;7.246;2022-11-20T06:40:13;14.70;;;12.33;;
68050;SDS011;54839;51.364;7.246;2022-11-20T06:42:38;16.20;;;11.27;;
68050;SDS011;54839;51.364;7.246;2022-11-20T06:45:04;15.30;;;12.03;;
68050;SDS011;54839;51.364;7.246;2022-11-20T06:47:30;15.70;;;12.60;;
68050;SDS011;54839;51.364;7.246;2022-11-20T06:49:55;18.20;;;12.90;;
68050;SDS011;54839;51.364;7.246;2022-11-20T06:52:21;16.30;;;12.93;;
68050;SDS011;54839;51.364;7.246;2022-11-20T06:54:47;19.30;;;13.50;;
68050;SDS011;54839;51.364;7.246;2022-11-20T06:57:12;16.93;;;12.27;;
68050;SDS011;54839;51.364;7.246;2022-11-20T06:59:38;16.47;;;12.80;;
68050;SDS011;54839;51.364;7.246;2022-11-20T07:02:03;17.60;;;12.90;;
68050;SDS011;54839;51.364;7.246;2022-11-20T07:04:29;17.90;;;13.50;;
68050;SDS011;54839;51.364;7.246;2022-11-20T07:06:54;15.90;;;12.60;;
68050;SDS011;54839;51.364;7.246;2022-11-20T07:09:20;17.47;;;12.60;;
68050;SDS011;54839;51.364;7.246;2022-11-20T07:11:46;13.20;;;11.73;;
68050;SDS011;54839;51.364;7.246;2022-11-20T07:14:11;17.80;;;13.17;;
68050;SDS011;54839;51.364;7.246;2022-11-20T07:16:37;17.43;;;13.23;;
68050;SDS011;54839;51.364;7.246;2022-11-20T07:19:02;19.57;;;14.80;;
68050;SDS011;54839;51.364;7.246;2022-11-20T07:21:28;19.13;;;14.50;;
68050;SDS011;54839;51.364;7.246;2022-11-20T07:23:53;16.50;;;13.50;;
68050;SDS011;54839;51.364;7.246;2022-11-20T07:26:19;22.37;;;17.10;;
68050;SDS011;54839;51.364;7.246;2022-11-20T07:28:45;18.50;;;15.97;;
68050;SDS011;54839;51.364;7.246;2022-11-20T07:31:11;19.73;;;15.07;;
68050;SDS011;54839;51.364;7.246;2022-11-20T07:33:38;21.73;;;15.67;;
68050;SDS011;54839;51.364;7.246;2022-11-20T07:36:03;21.00;;;17.27;;
68050;SDS011;54839;51.364;7.246;2022-11-20T07:38:29;21.27;;;17.23;;
68050;SDS011;54839;51.364;7.246;2022-11-20T07:40:55;19.60;;;15.30;;
68050;SDS011;54839;51.364;7.246;2022-11-20T07:43:22;18.20;;;15.23;;
68050;SDS011;54839;51.364;7.246;2022-11-20T07:45:48;20.40;;;15.80;;
68050;SDS011;54839;51.364;7.246;2022-11-20T07:48:14;22.47;;;15.87;;
68050;SDS011;54839;51.364;7.246;2022-11-20T07:50:40;19.40;;;14.60;;
68050;SDS011;54839;51.364;7.246;2022-11-20T07:53:05;18.10;;;12.93;;
68050;SDS011;54839;51.364;7.246;2022-11-20T07:55:31;18.03;;;12.87;;
68050;SDS011;54839;51.364;7.246;2022-11-20T07:57:57;18.63;;;13.73;;
68050;SDS011;54839;51.364;7.246;2022-11-20T08:00:24;20.57;;;16.30;;
68050;SDS011;54839;51.364;7.246;2022-11-20T08:02:51;21.10;;;15.77;;
68050;SDS011;54839;51.364;7.246;2022-11-20T08:05:16;20.10;;;15.47;;
68050;SDS011;54839;51.364;7.246;2022-11-20T08:07:42;19.87;;;14.87;;
68050;SDS011;54839;51.364;7.246;2022-11-20T08:10:09;16.73;;;13.07;;
68050;SDS011;54839;51.364;7.246;2022-11-20T08:12:43;19.30;;;14.63;;
68050;SDS011;54839;51.364;7.246;2022-11-20T08:15:31;21.47;;;14.23;;
68050;SDS011;54839;51.364;7.246;2022-11-20T08:18:04;22.73;;;15.53;;
68050;SDS011;54839;51.364;7.246;2022-11-20T08:20:32;17.57;;;14.17;;
68050;SDS011;54839;51.364;7.246;2022-11-20T08:22:59;21.87;;;14.93;;
68050;SDS011;54839;51.364;7.246;2022-11-20T08:25:26;18.47;;;15.23;;
68050;SDS011;54839;51.364;7.246;2022-11-20T08:27:53;21.37;;;16.60;;
68050;SDS011;54839;51.364;7.246;2022-11-20T08:30:18;22.20;;;16.90;;
68050;SDS011;54839;51.364;7.246;2022-11-20T08:32:44;20.07;;;16.93;;
68050;SDS011;54839;51.364;7.246;2022-11-20T08:35:09;23.70;;;16.57;;
68050;SDS011;54839;51.364;7.246;2022-11-20T08:37:35;21.03;;;15.40;;
68050;SDS011;54839;51.364;7.246;2022-11-20T08:40:02;20.70;;;16.80;;
68050;SDS011;54839;51.364;7.246;2022-11-20T08:42:28;20.50;;;17.10;;
68050;SDS011;54839;51.364;7.246;2022-11-20T08:44:53;24.33;;;17.67;;
68050;SDS011;54839;51.364;7.246;2022-11-20T08:47:19;23.80;;;18.90;;
68050;SDS011;54839;51.364;7.246;2022-11-20T08:49:44;25.17;;;20.03;;
68050;SDS011;54839;51.364;7.246;2022-11-20T08:52:10;27.30;;;19.60;;
68050;SDS011;54839;51.364;7.246;2022-11-20T08:54:36;23.30;;;18.27;;
68050;SDS011;54839;51.364;7.246;2022-11-20T08:57:01;23.70;;;19.67;;
68050;SDS011;54839;51.364;7.246;2022-11-20T08:59:27;33.27;;;23.37;;
68050;SDS011;54839;51.364;7.246;2022-11-20T09:01:52;24.03;;;19.17;;
68050;SDS011;54839;51.364;7.246;2022-11-20T09:04:18;29.30;;;21.13;;
68050;SDS011;54839;51.364;7.246;2022-11-20T09:06:44;31.80;;;24.03;;
68050;SDS011;54839;51.364;7.246;2022-11-20T09:09:09;27.03;;;21.20;;
68050;SDS011;54839;51.364;7.246;2022-11-20T09:11:35;27.47;;;21.13;;
68050;SDS011;54839;51.364;7.246;2022-11-20T09:14:01;21.13;;;17.67;;
68050;SDS011;54839;51.364;7.246;2022-11-20T09:16:27;20.23;;;18.03;;
68050;SDS011;54839;51.364;7.246;2022-11-20T09:18:53;23.33;;;18.87;;
68050;SDS011;54839;51.364;7.246;2022-11-20T09:21:18;28.23;;;22.10;;
68050;SDS011;54839;51.364;7.246;2022-11-20T09:23:44;21.50;;;16.17;;
68050;SDS011;54839;51.364;7.246;2022-11-20T09:26:11;17.97;;;13.27;;
68050;SDS011;54839;51.364;7.246;2022-11-20T09:28:38;26.40;;;16.27;;
68050;SDS011;54839;51.364;7.246;2022-11-20T09:31:07;19.67;;;14.43;;
68050;SDS011;54839;51.364;7.246;2022-11-20T09:33:34;16.70;;;14.20;;
68050;SDS011;54839;51.364;7.246;2022-11-20T09:36:00;16.03;;;12.30;;
68050;SDS011;54839;51.364;7.246;2022-11-20T09:38:26;16.50;;;12.87;;
68050;SDS011;54839;51.364;7.246;2022-11-20T09:43:50;19.60;;;15.57;;
68050;SDS011;54839;51.364;7.246;2022-11-20T09:46:53;18.67;;;13.47;;
68050;SDS011;54839;51.364;7.246;2022-11-20T09:54:52;16.97;;;12.67;;
68050;SDS011;54839;51.364;7.246;2022-11-20T09:57:24;17.83;;;14.30;;
68050;SDS011;54839;51.364;7.246;2022-11-20T09:59:56;17.90;;;12.67;;
68050;SDS011;54839;51.364;7.246;2022-11-20T10:05:35;14.90;;;11.23;;
68050;SDS011;54839;51.364;7.246;2022-11-20T10:08:17;14.77;;;11.07;;
68050;SDS011;54839;51.364;7.246;2022-11-20T10:13:38;10.17;;;8.80;;
68050;SDS011;54839;51.364;7.246;2022-11-20T10:19:20;9.83;;;7.97;;
68050;SDS011;54839;51.364;7.246;2022-11-20T10:27:46;8.50;;;7.40;;
68050;SDS011;54839;51.364;7.246;2022-11-20T10:30:21;6.97;;;6.23;;
68050;SDS011;54839;51.364;7.246;2022-11-20T10:33:00;10.07;;;7.90;;
68050;SDS011;54839;51.364;7.246;2022-11-20T10:38:00;9.63;;;8.50;;
68050;SDS011;54839;51.364;7.246;2022-11-20T10:40:35;10.77;;;8.60;;
68050;SDS011;54839;51.364;7.246;2022-11-20T10:43:18;10.60;;;8.03;;
68050;SDS011;54839;51.364;7.246;2022-11-20T10:46:01;9.80;;;8.30;;
68050;SDS011;54839;51.364;7.246;2022-11-20T10:48:33;8.07;;;6.50;;
68050;SDS011;54839;51.364;7.246;2022-11-20T10:51:12;10.07;;;7.53;;
68050;SDS011;54839;51.364;7.246;2022-11-20T10:54:05;11.97;;;9.27;;
68050;SDS011;54839;51.364;7.246;2022-11-20T10:56:36;12.37;;;8.77;;
68050;SDS011;54839;51.364;7.246;2022-11-20T11:02:41;11.27;;;8.43;;
68050;SDS011;54839;51.364;7.246;2022-11-20T11:05:54;11.77;;;8.77;;
68050;SDS011;54839;51.364;7.246;2022-11-20T11:08:05;11.83;;;9.37;;
68050;SDS011;54839;51.364;7.246;2022-11-20T11:13:23;14.20;;;10.50;;
68050;SDS011;54839;51.364;7.246;2022-11-20T11:15:51;13.60;;;11.83;;
68050;SDS011;54839;51.364;7.246;2022-11-20T11:20:53;15.20;;;12.13;;
68050;SDS011;54839;51.364;7.246;2022-11-20T11:23:39;14.17;;;11.67;;
68050;SDS011;54839;51.364;7.246;2022-11-20T11:26:18;14.37;;;10.47;;
68050;SDS011;54839;51.364;7.246;2022-11-20T11:28:55;15.13;;;11.23;;
68050;SDS011;54839;51.364;7.246;2022-11-20T11:31:29;15.33;;;11.83;;
68050;SDS011;54839;51.364;7.246;2022-11-20T11:34:04;14.40;;;11.87;;
68050;SDS011;54839;51.364;7.246;2022-11-20T11:36:36;13.73;;;10.43;;
68050;SDS011;54839;51.364;7.246;2022-11-20T11:39:03;18.73;;;12.77;;
68050;SDS011;54839;51.364;7.246;2022-11-20T11:41:32;13.80;;;11.50;;
68050;SDS011;54839;51.364;7.246;2022-11-20T11:44:03;16.33;;;12.40;;
68050;SDS011;54839;51.364;7.246;2022-11-20T11:47:00;13.33;;;10.83;;
68050;SDS011;54839;51.364;7.246;2022-11-20T11:49:27;20.10;;;14.03;;
68050;SDS011;54839;51.364;7.246;2022-11-20T11:52:10;15.67;;;13.23;;
68050;SDS011;54839;51.364;7.246;2022-11-20T11:57:24;14.83;;;11.70;;
68050;SDS011;54839;51.364;7.246;2022-11-20T12:00:20;15.17;;;11.83;;
68050;SDS011;54839;51.364;7.246;2022-11-20T12:16:13;17.37;;;14.80;;
68050;SDS011;54839;51.364;7.246;2022-11-20T12:18:42;20.50;;;14.10;;
68050;SDS011;54839;51.364;7.246;2022-11-20T12:43:19;26.80;;;16.90;;
68050;SDS011;54839;51.364;7.246;2022-11-20T12:48:46;21.53;;;16.00;;
68050;SDS011;54839;51.364;7.246;2022-11-20T12:54:22;23.70;;;17.80;;
68050;SDS011;54839;51.364;7.246;2022-11-20T12:57:02;22.17;;;18.40;;
68050;SDS011;54839;51.364;7.246;2022-11-20T12:59:51;21.90;;;15.90;;
68050;SDS011;54839;51.364;7.246;2022-11-20T13:05:18;26.20;;;17.37;;
68050;SDS011;54839;51.364;7.246;2022-11-20T13:07:47;18.67;;;15.83;;
68050;SDS011;54839;51.364;7.246;2022-11-20T13:10:18;22.27;;;17.77;;
68050;SDS011;54839;51.364;7.246;2022-11-20T13:13:07;24.13;;;17.00;;
68050;SDS011;54839;51.364;7.246;2022-11-20T13:18:11;23.60;;;16.93;;
68050;SDS011;54839;51.364;7.246;2022-11-20T13:20:44;23.00;;;17.40;;
68050;SDS011;54839;51.364;7.246;2022-11-20T13:23:11;28.00;;;17.90;;
68050;SDS011;54839;51.364;7.246;2022-11-20T13:25:38;24.13;;;18.43;;
68050;SDS011;54839;51.364;7.246;2022-11-20T13:28:23;23.53;;;17.37;;
68050;SDS011;54839;51.364;7.246;2022-11-20T13:30:55;21.57;;;16.87;;
68050;SDS011;54839;51.364;7.246;2022-11-20T13:33:31;24.27;;;18.20;;
68050;SDS011;54839;51.364;7.246;2022-11-20T13:36:03;27.97;;;19.33;;
68050;SDS011;54839;51.364;7.246;2022-11-20T13:41:29;55.17;;;41.67;;
68050;SDS011;54839;51.364;7.246;2022-11-20T13:44:05;31.30;;;23.40;;
68050;SDS011;54839;51.364;7.246;2022-11-20T13:46:38;26.20;;;18.90;;
68050;SDS011;54839;51.364;7.246;2022-11-20T13:51:53;23.67;;;18.30;;
68050;SDS011;54839;51.364;7.246;2022-11-20T13:57:34;25.57;;;17.60;;
68050;SDS011;54839;51.364;7.246;2022-11-20T14:00:23;25.87;;;17.03;;
68050;SDS011;54839;51.364;7.246;2022-11-20T14:02:59;21.03;;;17.63;;
68050;SDS011;54839;51.364;7.246;2022-11-20T14:05:25;24.57;;;18.20;;
68050;SDS011;54839;51.364;7.246;2022-11-20T14:07:52;31.30;;;19.50;;
68050;SDS011;54839;51.364;7.246;2022-11-20T14:10:28;26.30;;;18.77;;
68050;SDS011;54839;51.364;7.246;2022-11-20T14:12:54;23.80;;;18.17;;
68050;SDS011;54839;51.364;7.246;2022-11-20T14:15:27;22.97;;;17.27;;
68050;SDS011;54839;51.364;7.246;2022-11-20T14:17:53;21.77;;;17.17;;
68050;SDS011;54839;51.364;7.246;2022-11-20T14:20:19;25.57;;;19.50;;
68050;SDS011;54839;51.364;7.246;2022-11-20T14:22:51;23.50;;;18.80;;
68050;SDS011;54839;51.364;7.246;2022-11-20T14:25:19;23.50;;;17.53;;
68050;SDS011;54839;51.364;7.246;2022-11-20T14:27:55;24.10;;;17.30;;
68050;SDS011;54839;51.364;7.246;2022-11-20T14:30:44;24.87;;;17.90;;
68050;SDS011;54839;51.364;7.246;2022-11-20T14:33:12;26.43;;;18.47;;
68050;SDS011;54839;51.364;7.246;2022-11-20T14:35:46;23.60;;;17.93;;
68050;SDS011;54839;51.364;7.246;2022-11-20T14:38:17;23.00;;;17.37;;
68050;SDS011;54839;51.364;7.246;2022-11-20T14:40:46;24.60;;;17.20;;
68050;SDS011;54839;51.364;7.246;2022-11-20T14:43:30;27.50;;;18.70;;
68050;SDS011;54839;51.364;7.246;2022-11-20T14:45:56;27.30;;;20.20;;
68050;SDS011;54839;51.364;7.246;2022-11-20T14:48:35;28.87;;;20.37;;
68050;SDS011;54839;51.364;7.246;2022-11-20T14:51:05;23.57;;;17.97;;
68050;SDS011;54839;51.364;7.246;2022-11-20T14:53:33;30.57;;;22.60;;
68050;SDS011;54839;51.364;7.246;2022-11-20T14:55:59;28.03;;;20.60;;
68050;SDS011;54839;51.364;7.246;2022-11-20T14:58:29;28.47;;;19.57;;
68050;SDS011;54839;51.364;7.246;2022-11-20T15:01:00;29.27;;;20.57;;
68050;SDS011;54839;51.364;7.246;2022-11-20T15:03:35;33.03;;;20.43;;
68050;SDS011;54839;51.364;7.246;2022-11-20T15:06:05;27.57;;;19.47;;
68050;SDS011;54839;51.364;7.246;2022-11-20T15:08:36;30.07;;;20.53;;
68050;SDS011;54839;51.364;7.246;2022-11-20T15:11:02;27.50;;;19.87;;
68050;SDS011;54839;51.364;7.246;2022-11-20T15:13:32;35.80;;;23.37;;
68050;SDS011;54839;51.364;7.246;2022-11-20T15:16:01;36.83;;;22.63;;
68050;SDS011;54839;51.364;7.246;2022-11-20T15:18:28;37.03;;;23.10;;
68050;SDS011;54839;51.364;7.246;2022-11-20T15:20:55;32.27;;;23.07;;
68050;SDS011;54839;51.364;7.246;2022-11-20T15:23:22;33.47;;;22.50;;
68050;SDS011;54839;51.364;7.246;2022-11-20T15:25:48;36.47;;;25.60;;
68050;SDS011;54839;51.364;7.246;2022-11-20T15:28:21;37.90;;;22.80;;
68050;SDS011;54839;51.364;7.246;2022-11-20T15:30:54;32.13;;;22.50;;
68050;SDS011;54839;51.364;7.246;2022-11-20T15:33:21;33.90;;;22.50;;
68050;SDS011;54839;51.364;7.246;2022-11-20T15:35:46;40.70;;;25.03;;
68050;SDS011;54839;51.364;7.246;2022-11-20T15:38:12;34.30;;;21.20;;
68050;SDS011;54839;51.364;7.246;2022-11-20T15:40:38;36.77;;;23.50;;
68050;SDS011;54839;51.364;7.246;2022-11-20T15:43:03;33.70;;;23.17;;
68050;SDS011;54839;51.364;7.246;2022-11-20T15:45:31;35.10;;;22.80;;
68050;SDS011;54839;51.364;7.246;2022-11-20T15:50:58;41.23;;;24.67;;
68050;SDS011;54839;51.364;7.246;2022-11-20T15:53:31;34.23;;;24.93;;
68050;SDS011;54839;51.364;7.246;2022-11-20T15:55:56;33.87;;;22.10;;
68050;SDS011;54839;51.364;7.246;2022-11-20T15:58:22;33.67;;;21.70;;
68050;SDS011;54839;51.364;7.246;2022-11-20T16:00:49;36.40;;;22.80;;
68050;SDS011;54839;51.364;7.246;2022-11-20T16:03:15;36.70;;;24.00;;
68050;SDS011;54839;51.364;7.246;2022-11-20T16:05:42;34.67;;;22.43;;
68050;SDS011;54839;51.364;7.246;2022-11-20T16:08:08;37.43;;;20.43;;
68050;SDS011;54839;51.364;7.246;2022-11-20T16:10:34;31.23;;;21.27;;
68050;SDS011;54839;51.364;7.246;2022-11-20T16:13:00;30.50;;;20.67;;
68050;SDS011;54839;51.364;7.246;2022-11-20T16:15:45;32.27;;;19.40;;
68050;SDS011;54839;51.364;7.246;2022-11-20T16:18:18;33.43;;;22.67;;
68050;SDS011;54839;51.364;7.246;2022-11-20T16:20:47;32.80;;;20.50;;